sensor_id;sensor_type;location;lat;lon;timestamp;pressure;altitude;pressure_sealevel;temperature;humidity
8294;BME280;4185;41.506;24.938;2023-03-03T00:00:45;93515.44;;;4.26;100.00
8294;BME280;4185;41.506;24.938;2023-03-03T00:03:15;93512.63;;;4.30;100.00
8294;BME280;4185;41.506;24.938;2023-03-03T00:05:43;93518.44;;;4.19;100.00
8294;BME280;4185;41.506;24.938;2023-03-03T00:08:11;93519.63;;;4.18;100.00
8294;BME280;4185;41.506;24.938;2023-03-03T00:10:38;93515.63;;;4.23;100.00
8294;BME280;4185;41.506;24.938;2023-03-03T00:13:12;93515.31;;;4.30;100.00
8294;BME280;4185;41.506;24.938;2023-03-03T00:15:41;93517.88;;;4.33;100.00
8294;BME280;4185;41.506;24.938;2023-03-03T00:18:21;93514.31;;;4.36;100.00
8294;BME280;4185;41.506;24.938;2023-03-03T00:20:52;93508.75;;;4.40;100.00
8294;BME280;4185;41.506;24.938;2023-03-03T00:23:29;93505.66;;;4.41;100.00
8294;BME280;4185;41.506;24.938;2023-03-03T00:25:57;93477.69;;;4.30;100.00
8294;BME280;4185;41.506;24.938;2023-03-03T00:28:27;93498.47;;;4.38;100.00
8294;BME280;4185;41.506;24.938;2023-03-03T00:30:56;93490.09;;;4.36;100.00
8294;BME280;4185;41.506;24.938;2023-03-03T00:33:27;93497.88;;;4.34;100.00
8294;BME280;4185;41.506;24.938;2023-03-03T00:36:05;93497.88;;;4.34;100.00
8294;BME280;4185;41.506;24.938;2023-03-03T00:38:37;93497.88;;;4.34;100.00
8294;BME280;4185;41.506;24.938;2023-03-03T00:41:13;93490.53;;;4.35;100.00
8294;BME280;4185;41.506;24.938;2023-03-03T00:43:42;93487.56;;;4.33;100.00
8294;BME280;4185;41.506;24.938;2023-03-03T00:46:09;93484.44;;;4.34;100.00
8294;BME280;4185;41.506;24.938;2023-03-03T00:48:41;93487.41;;;4.36;100.00
8294;BME280;4185;41.506;24.938;2023-03-03T00:51:24;93493.97;;;4.35;100.00
8294;BME280;4185;41.506;24.938;2023-03-03T00:53:53;93487.13;;;4.34;100.00
8294;BME280;4185;41.506;24.938;2023-03-03T00:56:20;93484.25;;;4.29;100.00
8294;BME280;4185;41.506;24.938;2023-03-03T00:58:48;93482.03;;;4.27;100.00
8294;BME280;4185;41.506;24.938;2023-03-03T01:01:15;93471.53;;;4.20;100.00
8294;BME280;4185;41.506;24.938;2023-03-03T01:03:43;93485.28;;;4.22;100.00
8294;BME280;4185;41.506;24.938;2023-03-03T01:06:10;93483.63;;;4.16;100.00
8294;BME280;4185;41.506;24.938;2023-03-03T01:08:38;93477.19;;;4.13;100.00
8294;BME280;4185;41.506;24.938;2023-03-03T01:11:09;93472.41;;;4.08;100.00
8294;BME280;4185;41.506;24.938;2023-03-03T01:13:39;93461.97;;;4.10;100.00
8294;BME280;4185;41.506;24.938;2023-03-03T01:16:07;93471.06;;;4.13;100.00
8294;BME280;4185;41.506;24.938;2023-03-03T01:18:35;93465.69;;;4.13;100.00
8294;BME280;4185;41.506;24.938;2023-03-03T01:21:02;93466.72;;;4.06;100.00
8294;BME280;4185;41.506;24.938;2023-03-03T01:23:29;93466.13;;;4.02;100.00
8294;BME280;4185;41.506;24.938;2023-03-03T01:25:56;93458.06;;;4.02;100.00
8294;BME280;4185;41.506;24.938;2023-03-03T01:28:25;93456.56;;;4.01;100.00
8294;BME280;4185;41.506;24.938;2023-03-03T01:30:52;93470.63;;;4.05;100.00
8294;BME280;4185;41.506;24.938;2023-03-03T01:33:19;93469.72;;;4.08;100.00
8294;BME280;4185;41.506;24.938;2023-03-03T01:35:47;93465.69;;;4.13;100.00
8294;BME280;4185;41.506;24.938;2023-03-03T01:38:14;93461.38;;;4.15;100.00
8294;BME280;4185;41.506;24.938;2023-03-03T01:40:40;93466.44;;;4.13;100.00
8294;BME280;4185;41.506;24.938;2023-03-03T01:43:07;93472.00;;;4.19;100.00
8294;BME280;4185;41.506;24.938;2023-03-03T01:48:28;93458.09;;;4.20;100.00
8294;BME280;4185;41.506;24.938;2023-03-03T01:50:59;93470.78;;;4.20;100.00
8294;BME280;4185;41.506;24.938;2023-03-03T01:53:31;93464.06;;;4.15;100.00
8294;BME280;4185;41.506;24.938;2023-03-03T01:55:59;93462.28;;;4.12;100.00
8294;BME280;4185;41.506;24.938;2023-03-03T01:58:29;93465.38;;;4.02;100.00
8294;BME280;4185;41.506;24.938;2023-03-03T02:01:03;93466.00;;;4.06;100.00
8294;BME280;4185;41.506;24.938;2023-03-03T02:03:31;93464.34;;;4.08;100.00
8294;BME280;4185;41.506;24.938;2023-03-03T02:06:03;93468.81;;;4.11;100.00
8294;BME280;4185;41.506;24.938;2023-03-03T02:08:36;93464.22;;;4.12;100.00
8294;BME280;4185;41.506;24.938;2023-03-03T02:11:05;93465.56;;;4.16;100.00
8294;BME280;4185;41.506;24.938;2023-03-03T02:13:32;93466.16;;;4.20;100.00
8294;BME280;4185;41.506;24.938;2023-03-03T02:16:00;93463.03;;;4.22;100.00
8294;BME280;4185;41.506;24.938;2023-03-03T02:18:27;93466.78;;;4.24;100.00
8294;BME280;4185;41.506;24.938;2023-03-03T02:20:57;93465.59;;;4.25;100.00
8294;BME280;4185;41.506;24.938;2023-03-03T02:23:32;93465.13;;;4.18;100.00
8294;BME280;4185;41.506;24.938;2023-03-03T02:26:09;93468.38;;;4.13;100.00
8294;BME280;4185;41.506;24.938;2023-03-03T02:28:38;93474.78;;;4.06;100.00
8294;BME280;4185;41.506;24.938;2023-03-03T02:31:08;93466.72;;;4.06;100.00
8294;BME280;4185;41.506;24.938;2023-03-03T02:33:37;93461.06;;;4.04;100.00
8294;BME280;4185;41.506;24.938;2023-03-03T02:36:05;93457.50;;;4.07;100.00
8294;BME280;4185;41.506;24.938;2023-03-03T02:38:36;93465.41;;;4.11;100.00
8294;BME280;4185;41.506;24.938;2023-03-03T02:41:12;93451.84;;;4.14;100.00
8294;BME280;4185;41.506;24.938;2023-03-03T02:43:47;93450.94;;;4.17;100.00
8294;BME280;4185;41.506;24.938;2023-03-03T02:46:16;93454.66;;;4.20;100.00
8294;BME280;4185;41.506;24.938;2023-03-03T02:48:43;93446.16;;;4.21;100.00
8294;BME280;4185;41.506;24.938;2023-03-03T02:51:10;93456.47;;;4.23;100.00
8294;BME280;4185;41.506;24.938;2023-03-03T02:53:37;93457.50;;;4.25;100.00
8294;BME280;4185;41.506;24.938;2023-03-03T02:56:05;93459.63;;;4.30;100.00
8294;BME280;4185;41.506;24.938;2023-03-03T02:58:35;93452.00;;;4.29;100.00
8294;BME280;4185;41.506;24.938;2023-03-03T03:01:02;93460.97;;;4.26;100.00
8294;BME280;4185;41.506;24.938;2023-03-03T03:03:29;93462.13;;;4.25;100.00
8294;BME280;4185;41.506;24.938;2023-03-03T03:05:56;93462.28;;;4.21;100.00
8294;BME280;4185;41.506;24.938;2023-03-03T03:08:23;93462.44;;;4.18;100.00
8294;BME280;4185;41.506;24.938;2023-03-03T03:10:50;93461.69;;;4.17;100.00
8294;BME280;4185;41.506;24.938;2023-03-03T03:13:17;93458.69;;;4.15;100.00
8294;BME280;4185;41.506;24.938;2023-03-03T03:15:46;93459.00;;;4.17;100.00
8294;BME280;4185;41.506;24.938;2023-03-03T03:18:12;93458.09;;;4.20;100.00
8294;BME280;4185;41.506;24.938;2023-03-03T03:20:39;93449.28;;;4.20;100.00
8294;BME280;4185;41.506;24.938;2023-03-03T03:23:07;93451.97;;;4.20;100.00
8294;BME280;4185;41.506;24.938;2023-03-03T03:25:33;93454.06;;;4.16;100.00
8294;BME280;4185;41.506;24.938;2023-03-03T03:28:02;93449.44;;;4.16;100.00
8294;BME280;4185;41.506;24.938;2023-03-03T03:30:29;93451.38;;;4.16;100.00
8294;BME280;4185;41.506;24.938;2023-03-03T03:32:57;93446.47;;;4.14;100.00
8294;BME280;4185;41.506;24.938;2023-03-03T03:35:24;93446.16;;;4.12;100.00
8294;BME280;4185;41.506;24.938;2023-03-03T03:37:51;93445.25;;;4.15;100.00
8294;BME280;4185;41.506;24.938;2023-03-03T03:40:18;93442.88;;;4.17;100.00
8294;BME280;4185;41.506;24.938;2023-03-03T03:42:45;93431.50;;;4.13;100.00
8294;BME280;4185;41.506;24.938;2023-03-03T03:45:12;93437.63;;;4.14;100.00
8294;BME280;4185;41.506;24.938;2023-03-03T03:47:39;93419.59;;;4.14;100.00
8294;BME280;4185;41.506;24.938;2023-03-03T03:50:09;93430.34;;;4.14;100.00
8294;BME280;4185;41.506;24.938;2023-03-03T03:52:35;93424.97;;;4.14;100.00
8294;BME280;4185;41.506;24.938;2023-03-03T03:55:03;93430.34;;;4.14;100.00
8294;BME280;4185;41.506;24.938;2023-03-03T03:57:30;93431.81;;;4.15;100.00
8294;BME280;4185;41.506;24.938;2023-03-03T03:59:57;93434.81;;;4.17;100.00
8294;BME280;4185;41.506;24.938;2023-03-03T04:02:24;93435.09;;;4.10;100.00
8294;BME280;4185;41.506;24.938;2023-03-03T04:04:51;93434.47;;;4.06;100.00
8294;BME280;4185;41.506;24.938;2023-03-03T04:07:19;93430.41;;;3.93;100.00
8294;BME280;4185;41.506;24.938;2023-03-03T04:09:46;93437.88;;;3.89;100.00
8294;BME280;4185;41.506;24.938;2023-03-03T04:12:13;93435.31;;;3.76;100.00
8294;BME280;4185;41.506;24.938;2023-03-03T04:14:40;93441.59;;;3.82;100.00
8294;BME280;4185;41.506;24.938;2023-03-03T04:17:06;93438.16;;;3.82;100.00
8294;BME280;4185;41.506;24.938;2023-03-03T04:19:33;93442.47;;;3.79;100.00
8294;BME280;4185;41.506;24.938;2023-03-03T04:22:00;93445.00;;;3.73;100.00
8294;BME280;4185;41.506;24.938;2023-03-03T04:24:28;93438.25;;;3.69;100.00
8294;BME280;4185;41.506;24.938;2023-03-03T04:26:55;93437.53;;;3.68;100.00
8294;BME280;4185;41.506;24.938;2023-03-03T04:29:22;93429.88;;;3.67;100.00
8294;BME280;4185;41.506;24.938;2023-03-03T04:31:49;93433.91;;;3.62;100.00
8294;BME280;4185;41.506;24.938;2023-03-03T04:34:15;93436.91;;;3.64;100.00
8294;BME280;4185;41.506;24.938;2023-03-03T04:36:42;93429.63;;;3.65;100.00
8294;BME280;4185;41.506;24.938;2023-03-03T04:39:09;93434.97;;;3.65;100.00
8294;BME280;4185;41.506;24.938;2023-03-03T04:41:37;93440.22;;;3.68;100.00
8294;BME280;4185;41.506;24.938;2023-03-03T04:44:04;93429.63;;;3.74;100.00
8294;BME280;4185;41.506;24.938;2023-03-03T04:46:31;93437.84;;;3.80;100.00
8294;BME280;4185;41.506;24.938;2023-03-03T04:48:58;93437.72;;;3.83;100.00
8294;BME280;4185;41.506;24.938;2023-03-03T04:51:25;93441.03;;;3.87;100.00
8294;BME280;4185;41.506;24.938;2023-03-03T04:53:52;93441.75;;;3.88;100.00
8294;BME280;4185;41.506;24.938;2023-03-03T04:56:18;93445.50;;;3.90;100.00
8294;BME280;4185;41.506;24.938;2023-03-03T04:58:47;93432.97;;;3.87;100.00
8294;BME280;4185;41.506;24.938;2023-03-03T05:01:13;93440.41;;;3.83;100.00
8294;BME280;4185;41.506;24.938;2023-03-03T05:03:40;93431.59;;;3.83;100.00
8294;BME280;4185;41.506;24.938;2023-03-03T05:06:07;93428.59;;;3.81;100.00
8294;BME280;4185;41.506;24.938;2023-03-03T05:08:35;93440.22;;;3.78;100.00
8294;BME280;4185;41.506;24.938;2023-03-03T05:11:04;93444.88;;;3.77;100.00
8294;BME280;4185;41.506;24.938;2023-03-03T05:13:31;93446.63;;;3.71;100.00
8294;BME280;4185;41.506;24.938;2023-03-03T05:15:59;93443.75;;;3.65;100.00
8294;BME280;4185;41.506;24.938;2023-03-03T05:18:26;93440.38;;;3.74;100.00
8294;BME280;4185;41.506;24.938;2023-03-03T05:20:53;93434.13;;;3.77;100.00
8294;BME280;4185;41.506;24.938;2023-03-03T05:23:20;93443.09;;;3.83;100.00
8294;BME280;4185;41.506;24.938;2023-03-03T05:25:48;93443.09;;;3.83;100.00
8294;BME280;4185;41.506;24.938;2023-03-03T05:28:15;93446.09;;;3.85;100.00
8294;BME280;4185;41.506;24.938;2023-03-03T05:30:43;93444.56;;;3.84;100.00
8294;BME280;4185;41.506;24.938;2023-03-03T05:33:14;93451.16;;;3.83;100.00
8294;BME280;4185;41.506;24.938;2023-03-03T05:35:42;93450.84;;;3.81;100.00
8294;BME280;4185;41.506;24.938;2023-03-03T05:38:09;93450.84;;;3.81;100.00
8294;BME280;4185;41.506;24.938;2023-03-03T05:40:36;93446.66;;;3.80;100.00
8294;BME280;4185;41.506;24.938;2023-03-03T05:43:03;93452.50;;;3.79;100.00
8294;BME280;4185;41.506;24.938;2023-03-03T05:45:31;93449.50;;;3.77;100.00
8294;BME280;4185;41.506;24.938;2023-03-03T05:47:59;93447.84;;;3.79;100.00
8294;BME280;4185;41.506;24.938;2023-03-03T05:50:29;93447.84;;;3.79;100.00
8294;BME280;4185;41.506;24.938;2023-03-03T05:52:56;93447.84;;;3.79;100.00
8294;BME280;4185;41.506;24.938;2023-03-03T05:55:23;93454.88;;;3.77;100.00
8294;BME280;4185;41.506;24.938;2023-03-03T05:57:50;93460.38;;;3.73;100.00
8294;BME280;4185;41.506;24.938;2023-03-03T06:00:18;93453.50;;;3.72;100.00
8294;BME280;4185;41.506;24.938;2023-03-03T06:02:45;93438.69;;;3.58;100.00
8294;BME280;4185;41.506;24.938;2023-03-03T06:05:12;93452.88;;;3.68;100.00
8294;BME280;4185;41.506;24.938;2023-03-03T06:07:40;93451.09;;;3.74;100.00
8294;BME280;4185;41.506;24.938;2023-03-03T06:10:07;93456.47;;;3.74;100.00
8294;BME280;4185;41.506;24.938;2023-03-03T06:12:34;93460.38;;;3.73;100.00
8294;BME280;4185;41.506;24.938;2023-03-03T06:15:04;93456.63;;;3.70;100.00
8294;BME280;4185;41.506;24.938;2023-03-03T06:17:31;93454.06;;;3.67;100.00
8294;BME280;4185;41.506;24.938;2023-03-03T06:19:58;93460.63;;;3.66;100.00
8294;BME280;4185;41.506;24.938;2023-03-03T06:22:25;93457.94;;;3.66;100.00
8294;BME280;4185;41.506;24.938;2023-03-03T06:24:53;93456.47;;;3.65;100.00
8294;BME280;4185;41.506;24.938;2023-03-03T06:27:20;93463.91;;;3.61;100.00
8294;BME280;4185;41.506;24.938;2023-03-03T06:29:47;93461.53;;;3.63;100.00
8294;BME280;4185;41.506;24.938;2023-03-03T06:32:14;93460.63;;;3.66;100.00
8294;BME280;4185;41.506;24.938;2023-03-03T06:34:41;93468.13;;;3.71;100.00
8294;BME280;4185;41.506;24.938;2023-03-03T06:37:08;93476.47;;;3.73;100.00
8294;BME280;4185;41.506;24.938;2023-03-03T06:39:34;93475.00;;;3.72;100.00
8294;BME280;4185;41.506;24.938;2023-03-03T06:42:03;93475.59;;;3.76;100.00
8294;BME280;4185;41.506;24.938;2023-03-03T06:44:30;93474.88;;;3.85;100.00
8294;BME280;4185;41.506;24.938;2023-03-03T06:46:57;93479.81;;;3.86;100.00
8294;BME280;4185;41.506;24.938;2023-03-03T06:49:24;93480.13;;;3.88;100.00
8294;BME280;4185;41.506;24.938;2023-03-03T06:51:51;93480.44;;;3.90;100.00
8294;BME280;4185;41.506;24.938;2023-03-03T06:54:19;93478.06;;;3.92;100.00
8294;BME280;4185;41.506;24.938;2023-03-03T06:56:48;93473.72;;;3.95;100.00
8294;BME280;4185;41.506;24.938;2023-03-03T06:59:20;93479.41;;;3.97;100.00
8294;BME280;4185;41.506;24.938;2023-03-03T07:01:49;93478.66;;;3.96;100.00
8294;BME280;4185;41.506;24.938;2023-03-03T07:04:24;93468.78;;;3.93;100.00
8294;BME280;4185;41.506;24.938;2023-03-03T07:06:55;93478.06;;;4.01;100.00
8294;BME280;4185;41.506;24.938;2023-03-03T07:09:24;93479.25;;;4.00;100.00
8294;BME280;4185;41.506;24.938;2023-03-03T07:11:53;93483.00;;;4.03;100.00
8294;BME280;4185;41.506;24.938;2023-03-03T07:14:24;93484.81;;;4.06;99.88
8294;BME280;4185;41.506;24.938;2023-03-03T07:16:55;93481.22;;;4.09;100.00
8294;BME280;4185;41.506;24.938;2023-03-03T07:19:30;93481.22;;;4.09;100.00
8294;BME280;4185;41.506;24.938;2023-03-03T07:21:59;93489.59;;;4.11;100.00
8294;BME280;4185;41.506;24.938;2023-03-03T07:24:28;93493.00;;;4.02;98.31
8294;BME280;4185;41.506;24.938;2023-03-03T07:26:59;93492.84;;;3.97;98.55
8294;BME280;4185;41.506;24.938;2023-03-03T07:29:33;93494.47;;;3.94;99.02
8294;BME280;4185;41.506;24.938;2023-03-03T07:32:05;93491.94;;;4.00;99.37
8294;BME280;4185;41.506;24.938;2023-03-03T07:34:43;93486.00;;;4.05;99.05
8294;BME280;4185;41.506;24.938;2023-03-03T07:37:16;93489.88;;;4.13;99.16
8294;BME280;4185;41.506;24.938;2023-03-03T07:39:45;93492.00;;;4.18;99.15
8294;BME280;4185;41.506;24.938;2023-03-03T07:42:21;93492.16;;;4.23;98.58
8294;BME280;4185;41.506;24.938;2023-03-03T07:44:53;93487.25;;;4.31;97.77
8294;BME280;4185;41.506;24.938;2023-03-03T07:47:23;93485.31;;;4.40;97.93
8294;BME280;4185;41.506;24.938;2023-03-03T07:49:51;93474.59;;;4.49;97.60
8294;BME280;4185;41.506;24.938;2023-03-03T07:52:30;93472.34;;;4.57;96.38
8294;BME280;4185;41.506;24.938;2023-03-03T07:55:01;93477.56;;;4.60;95.65
8294;BME280;4185;41.506;24.938;2023-03-03T07:57:45;93467.72;;;4.57;96.45
8294;BME280;4185;41.506;24.938;2023-03-03T08:03:16;93464.75;;;4.73;95.29
8294;BME280;4185;41.506;24.938;2023-03-03T08:05:46;93463.09;;;4.76;94.57
8294;BME280;4185;41.506;24.938;2023-03-03T08:08:21;93467.88;;;4.81;94.18
8294;BME280;4185;41.506;24.938;2023-03-03T08:10:54;93457.41;;;4.83;93.99
8294;BME280;4185;41.506;24.938;2023-03-03T08:13:23;93454.25;;;4.84;93.85
8294;BME280;4185;41.506;24.938;2023-03-03T08:15:59;93444.97;;;4.85;93.88
8294;BME280;4185;41.506;24.938;2023-03-03T08:18:33;93448.56;;;4.91;95.17
8294;BME280;4185;41.506;24.938;2023-03-03T08:21:02;93436.59;;;5.02;94.26
8294;BME280;4185;41.506;24.938;2023-03-03T08:23:30;93439.13;;;5.14;92.98
8294;BME280;4185;41.506;24.938;2023-03-03T08:25:57;93430.44;;;5.19;92.04
8294;BME280;4185;41.506;24.938;2023-03-03T08:28:24;93424.75;;;5.17;91.61
8294;BME280;4185;41.506;24.938;2023-03-03T08:30:51;93431.47;;;5.13;91.70
8294;BME280;4185;41.506;24.938;2023-03-03T08:33:18;93431.06;;;5.05;92.27
8294;BME280;4185;41.506;24.938;2023-03-03T08:35:46;93429.13;;;4.96;93.37
8294;BME280;4185;41.506;24.938;2023-03-03T08:38:14;93434.81;;;4.89;93.78
8294;BME280;4185;41.506;24.938;2023-03-03T08:40:41;93427.34;;;4.84;94.96
8294;BME280;4185;41.506;24.938;2023-03-03T08:43:09;93431.97;;;4.84;96.08
8294;BME280;4185;41.506;24.938;2023-03-03T08:45:38;93433.94;;;4.83;95.44
8294;BME280;4185;41.506;24.938;2023-03-03T08:48:05;93427.06;;;4.82;95.82
8294;BME280;4185;41.506;24.938;2023-03-03T08:50:32;93432.59;;;4.88;97.21
8294;BME280;4185;41.506;24.938;2023-03-03T08:53:01;93438.13;;;4.93;97.05
8294;BME280;4185;41.506;24.938;2023-03-03T08:55:28;93434.53;;;4.96;97.15
8294;BME280;4185;41.506;24.938;2023-03-03T08:57:55;93433.00;;;4.95;95.82
8294;BME280;4185;41.506;24.938;2023-03-03T09:00:22;93428.97;;;5.00;95.67
8294;BME280;4185;41.506;24.938;2023-03-03T09:02:50;93428.06;;;5.03;95.49
8294;BME280;4185;41.506;24.938;2023-03-03T09:05:17;93425.22;;;5.07;95.95
8294;BME280;4185;41.506;24.938;2023-03-03T09:07:45;93427.47;;;5.08;95.69
8294;BME280;4185;41.506;24.938;2023-03-03T09:10:16;93410.91;;;5.01;95.91
8294;BME280;4185;41.506;24.938;2023-03-03T09:12:44;93433.56;;;5.18;96.11
8294;BME280;4185;41.506;24.938;2023-03-03T09:15:17;93428.31;;;5.23;95.36
8294;BME280;4185;41.506;24.938;2023-03-03T09:17:45;93421.31;;;5.26;95.49
8294;BME280;4185;41.506;24.938;2023-03-03T09:20:26;93422.16;;;5.32;96.21
8294;BME280;4185;41.506;24.938;2023-03-03T09:22:53;93419.63;;;5.28;95.84
8294;BME280;4185;41.506;24.938;2023-03-03T09:25:29;93421.84;;;5.39;95.13
8294;BME280;4185;41.506;24.938;2023-03-03T09:27:57;93416.44;;;5.48;96.37
8294;BME280;4185;41.506;24.938;2023-03-03T09:30:46;93419.69;;;5.61;96.28
8294;BME280;4185;41.506;24.938;2023-03-03T09:33:27;93419.66;;;5.70;95.96
8294;BME280;4185;41.506;24.938;2023-03-03T09:36:00;93422.63;;;5.72;96.60
8294;BME280;4185;41.506;24.938;2023-03-03T09:38:30;93418.91;;;5.69;95.79
8294;BME280;4185;41.506;24.938;2023-03-03T09:44:11;93431.75;;;5.74;96.07
8294;BME280;4185;41.506;24.938;2023-03-03T09:46:49;93434.00;;;5.76;96.08
8294;BME280;4185;41.506;24.938;2023-03-03T09:49:28;93431.44;;;5.81;95.30
8294;BME280;4185;41.506;24.938;2023-03-03T09:52:21;93427.69;;;5.88;95.29
8294;BME280;4185;41.506;24.938;2023-03-03T09:55:06;93431.53;;;5.96;95.36
8294;BME280;4185;41.506;24.938;2023-03-03T09:57:52;93431.03;;;6.06;95.24
8294;BME280;4185;41.506;24.938;2023-03-03T10:00:32;93432.16;;;6.14;94.26
8294;BME280;4185;41.506;24.938;2023-03-03T10:03:35;93434.34;;;6.25;94.29
8294;BME280;4185;41.506;24.938;2023-03-03T10:06:10;93422.88;;;6.39;93.74
8294;BME280;4185;41.506;24.938;2023-03-03T10:08:52;93420.97;;;6.54;92.97
8294;BME280;4185;41.506;24.938;2023-03-03T10:11:25;93421.34;;;6.62;90.99
8294;BME280;4185;41.506;24.938;2023-03-03T10:14:09;93421.94;;;6.66;89.22
8294;BME280;4185;41.506;24.938;2023-03-03T10:16:53;93416.72;;;6.77;88.71
8294;BME280;4185;41.506;24.938;2023-03-03T10:19:35;93411.25;;;6.71;88.22
8294;BME280;4185;41.506;24.938;2023-03-03T10:22:12;93405.28;;;6.67;88.37
8294;BME280;4185;41.506;24.938;2023-03-03T10:24:52;93396.59;;;6.63;87.44
8294;BME280;4185;41.506;24.938;2023-03-03T10:27:40;93402.56;;;6.67;88.46
8294;BME280;4185;41.506;24.938;2023-03-03T10:30:20;93402.69;;;6.73;88.04
8294;BME280;4185;41.506;24.938;2023-03-03T10:32:57;93398.22;;;6.84;88.05
8294;BME280;4185;41.506;24.938;2023-03-03T10:35:44;93395.72;;;6.95;85.60
8294;BME280;4185;41.506;24.938;2023-03-03T10:38:28;93378.41;;;6.87;86.72
8294;BME280;4185;41.506;24.938;2023-03-03T10:41:14;93386.78;;;6.89;86.24
8294;BME280;4185;41.506;24.938;2023-03-03T10:44:00;93379.44;;;6.90;88.06
8294;BME280;4185;41.506;24.938;2023-03-03T10:46:51;93382.22;;;6.95;88.15
8294;BME280;4185;41.506;24.938;2023-03-03T10:49:32;93378.28;;;6.82;87.95
8294;BME280;4185;41.506;24.938;2023-03-03T10:52:25;93380.22;;;6.67;88.28
8294;BME280;4185;41.506;24.938;2023-03-03T10:55:19;93376.41;;;6.59;88.50
8294;BME280;4185;41.506;24.938;2023-03-03T10:58:03;93375.94;;;6.60;89.10
8294;BME280;4185;41.506;24.938;2023-03-03T11:00:40;93369.97;;;6.56;89.04
8294;BME280;4185;41.506;24.938;2023-03-03T11:03:38;93366.19;;;6.63;90.04
8294;BME280;4185;41.506;24.938;2023-03-03T11:06:13;93365.72;;;6.64;89.60
8294;BME280;4185;41.506;24.938;2023-03-03T11:08:49;93367.03;;;6.69;89.70
8294;BME280;4185;41.506;24.938;2023-03-03T11:11:26;93356.44;;;6.80;91.08
8294;BME280;4185;41.506;24.938;2023-03-03T11:13:59;93343.59;;;6.89;89.86
8294;BME280;4185;41.506;24.938;2023-03-03T11:16:40;93343.59;;;6.89;89.56
8294;BME280;4185;41.506;24.938;2023-03-03T11:19:28;93343.97;;;6.82;88.56
8294;BME280;4185;41.506;24.938;2023-03-03T11:22:09;93344.53;;;6.86;88.96
8294;BME280;4185;41.506;24.938;2023-03-03T11:24:50;93334.00;;;6.88;89.36
8294;BME280;4185;41.506;24.938;2023-03-03T11:27:29;93342.84;;;6.89;89.14
8294;BME280;4185;41.506;24.938;2023-03-03T11:30:11;93336.16;;;6.84;88.76
8294;BME280;4185;41.506;24.938;2023-03-03T11:32:49;93339.69;;;6.76;89.49
8294;BME280;4185;41.506;24.938;2023-03-03T11:35:24;93339.56;;;6.70;89.52
8294;BME280;4185;41.506;24.938;2023-03-03T11:38:09;93335.88;;;6.68;90.05
8294;BME280;4185;41.506;24.938;2023-03-03T11:40:46;93321.63;;;6.67;89.74
8294;BME280;4185;41.506;24.938;2023-03-03T11:43:18;93322.19;;;6.71;90.34
8294;BME280;4185;41.506;24.938;2023-03-03T11:45:50;93316.69;;;6.80;90.07
8294;BME280;4185;41.506;24.938;2023-03-03T11:48:23;93305.78;;;6.89;90.20
8294;BME280;4185;41.506;24.938;2023-03-03T11:50:57;93321.25;;;7.03;88.67
8294;BME280;4185;41.506;24.938;2023-03-03T11:53:36;93312.09;;;7.15;89.19
8294;BME280;4185;41.506;24.938;2023-03-03T11:56:16;93311.44;;;7.20;88.09
8294;BME280;4185;41.506;24.938;2023-03-03T11:58:51;93301.66;;;7.23;87.82
8294;BME280;4185;41.506;24.938;2023-03-03T12:01:22;93306.44;;;7.13;87.75
8294;BME280;4185;41.506;24.938;2023-03-03T12:03:54;93308.00;;;7.05;88.21
8294;BME280;4185;41.506;24.938;2023-03-03T12:06:32;93303.00;;;6.98;87.93
8294;BME280;4185;41.506;24.938;2023-03-03T12:09:34;93285.97;;;6.78;88.44
8294;BME280;4185;41.506;24.938;2023-03-03T12:12:07;93304.03;;;6.86;88.48
8294;BME280;4185;41.506;24.938;2023-03-03T12:14:54;93303.75;;;6.84;88.45
8294;BME280;4185;41.506;24.938;2023-03-03T12:17:34;93300.59;;;6.86;88.41
8294;BME280;4185;41.506;24.938;2023-03-03T12:20:13;93299.00;;;6.94;89.25
8294;BME280;4185;41.506;24.938;2023-03-03T12:22:51;93294.25;;;7.03;88.57
8294;BME280;4185;41.506;24.938;2023-03-03T12:25:35;93286.22;;;7.09;87.44
8294;BME280;4185;41.506;24.938;2023-03-03T12:28:09;93295.16;;;7.15;87.12
8294;BME280;4185;41.506;24.938;2023-03-03T12:30:55;93290.47;;;7.15;86.46
8294;BME280;4185;41.506;24.938;2023-03-03T12:33:34;93296.81;;;7.27;86.90
8294;BME280;4185;41.506;24.938;2023-03-03T12:36:12;93305.28;;;7.34;86.49
8294;BME280;4185;41.506;24.938;2023-03-03T12:38:51;93309.00;;;7.37;85.99
8294;BME280;4185;41.506;24.938;2023-03-03T12:41:26;93302.94;;;7.42;85.51
8294;BME280;4185;41.506;24.938;2023-03-03T12:44:00;93299.56;;;7.47;85.41
8294;BME280;4185;41.506;24.938;2023-03-03T12:46:37;93291.19;;;7.45;85.15
8294;BME280;4185;41.506;24.938;2023-03-03T12:49:07;93288.19;;;7.43;84.96
8294;BME280;4185;41.506;24.938;2023-03-03T12:51:45;93308.69;;;7.50;85.33
8294;BME280;4185;41.506;24.938;2023-03-03T12:54:32;93295.25;;;7.55;86.39
8294;BME280;4185;41.506;24.938;2023-03-03T12:57:12;93300.19;;;7.57;86.40
8294;BME280;4185;41.506;24.938;2023-03-03T12:59:49;93291.94;;;7.46;86.16
8294;BME280;4185;41.506;24.938;2023-03-03T13:02:40;93285.41;;;7.37;87.02
8294;BME280;4185;41.506;24.938;2023-03-03T13:05:18;93288.06;;;7.32;86.96
8294;BME280;4185;41.506;24.938;2023-03-03T13:07:51;93279.31;;;7.22;87.65
8294;BME280;4185;41.506;24.938;2023-03-03T13:10:26;93274.56;;;7.17;88.07
8294;BME280;4185;41.506;24.938;2023-03-03T13:13:01;93278.78;;;7.18;88.38
8294;BME280;4185;41.506;24.938;2023-03-03T13:15:35;93282.66;;;7.17;88.58
8294;BME280;4185;41.506;24.938;2023-03-03T13:18:18;93278.78;;;7.18;88.48
8294;BME280;4185;41.506;24.938;2023-03-03T13:20:56;93282.47;;;7.21;88.40
8294;BME280;4185;41.506;24.938;2023-03-03T13:23:35;93283.03;;;7.25;88.79
8294;BME280;4185;41.506;24.938;2023-03-03T13:26:10;93283.78;;;7.25;88.14
8294;BME280;4185;41.506;24.938;2023-03-03T13:28:54;93286.06;;;7.32;87.94
8294;BME280;4185;41.506;24.938;2023-03-03T13:31:25;93286.63;;;7.36;88.14
8294;BME280;4185;41.506;24.938;2023-03-03T13:33:57;93283.75;;;7.40;87.67
8294;BME280;4185;41.506;24.938;2023-03-03T13:36:29;93282.31;;;7.44;87.81
8294;BME280;4185;41.506;24.938;2023-03-03T13:39:02;93284.75;;;7.42;88.13
8294;BME280;4185;41.506;24.938;2023-03-03T13:41:37;93275.56;;;7.34;88.47
8294;BME280;4185;41.506;24.938;2023-03-03T13:44:10;93270.28;;;7.25;88.58
8294;BME280;4185;41.506;24.938;2023-03-03T13:46:47;93276.41;;;7.26;89.12
8294;BME280;4185;41.506;24.938;2023-03-03T13:49:25;93270.00;;;7.23;89.47